createdAt,value
2018-01-21T00:02:14.765Z,96.88
2018-01-21T00:04:42.188Z,96.82
2018-01-21T00:07:09.597Z,96.53
2018-01-21T00:09:37.032Z,96.62
2018-01-21T00:12:04.439Z,96.21
2018-01-21T00:14:31.865Z,96.08
2018-01-21T00:16:59.288Z,96.16
2018-01-21T00:19:26.725Z,95.55
2018-01-21T00:21:54.144Z,95.96
2018-01-21T00:24:21.882Z,95.62
2018-01-21T00:26:49.305Z,96.28
2018-01-21T00:29:16.721Z,96.14
2018-01-21T00:31:44.153Z,96.24
2018-01-21T00:34:11.564Z,96.69
2018-01-21T00:36:38.973Z,96.67
2018-01-21T00:39:06.388Z,96.55
2018-01-21T00:41:33.792Z,97.37
2018-01-21T00:44:01.222Z,97.12
2018-01-21T00:46:28.644Z,96.84
2018-01-21T00:48:56.086Z,97.17
2018-01-21T00:51:23.521Z,97.55
2018-01-21T00:53:51.401Z,97.77
2018-01-21T00:56:18.906Z,97.23
2018-01-21T00:58:46.377Z,97.02
2018-01-21T01:01:14.085Z,96.70
2018-01-21T01:03:41.511Z,96.47
2018-01-21T01:06:08.936Z,96.33
2018-01-21T01:08:36.360Z,96.83
2018-01-21T01:11:03.769Z,96.72
2018-01-21T01:13:31.189Z,96.83
2018-01-21T01:15:58.613Z,96.96
2018-01-21T01:18:26.044Z,96.92
2018-01-21T01:20:53.464Z,97.02
2018-01-21T01:23:20.893Z,97.08
2018-01-21T01:25:48.301Z,97.09
2018-01-21T01:28:15.708Z,97.43
2018-01-21T01:30:43.144Z,96.80
2018-01-21T01:33:10.560Z,96.65
2018-01-21T01:35:37.964Z,97.25
2018-01-21T01:38:05.403Z,96.77
2018-01-21T01:40:32.824Z,97.38
2018-01-21T01:43:00.225Z,97.00
2018-01-21T01:45:27.645Z,96.68
2018-01-21T01:47:55.053Z,96.45
2018-01-21T01:50:22.453Z,96.24
2018-01-21T01:52:50.142Z,96.88
2018-01-21T01:55:17.549Z,96.88
2018-01-21T01:57:44.961Z,96.72
2018-01-21T02:00:12.372Z,96.47
2018-01-21T02:02:39.778Z,96.08
2018-01-21T02:05:07.197Z,96.17
2018-01-21T02:07:34.621Z,96.05
2018-01-21T02:10:02.037Z,95.88
2018-01-21T02:12:29.456Z,96.51
2018-01-21T02:14:56.884Z,96.30
2018-01-21T02:17:24.292Z,96.82
2018-01-21T02:19:51.700Z,97.20
2018-01-21T02:22:19.116Z,97.10
2018-01-21T02:24:46.530Z,97.32
2018-01-21T02:27:13.936Z,97.24
2018-01-21T02:29:41.679Z,97.32
2018-01-21T02:32:09.087Z,97.21
2018-01-21T02:34:36.512Z,97.62
2018-01-21T02:37:03.941Z,97.36
2018-01-21T02:39:31.361Z,97.33
2018-01-21T02:41:58.773Z,97.89
2018-01-21T02:44:26.534Z,97.78
2018-01-21T02:46:53.949Z,97.62
2018-01-21T02:49:21.373Z,97.89
2018-01-21T02:51:48.797Z,97.71
2018-01-21T02:54:16.220Z,97.50
2018-01-21T02:56:43.628Z,97.49
2018-01-21T02:59:11.068Z,97.35
2018-01-21T03:01:38.489Z,97.68
2018-01-21T03:04:05.892Z,97.15
2018-01-21T03:06:33.313Z,97.41
2018-01-21T03:09:00.713Z,97.31
2018-01-21T03:11:28.125Z,97.53
2018-01-21T03:13:55.544Z,97.07
2018-01-21T03:16:22.952Z,96.88
2018-01-21T03:18:50.382Z,97.09
2018-01-21T03:21:17.813Z,97.10
2018-01-21T03:23:45.221Z,97.07
2018-01-21T03:26:12.653Z,96.96
2018-01-21T03:28:40.077Z,97.59
2018-01-21T03:31:07.488Z,97.17
2018-01-21T03:33:34.901Z,97.49
2018-01-21T03:36:02.350Z,97.99
2018-01-21T03:38:29.752Z,97.68
2018-01-21T03:40:57.169Z,97.67
2018-01-21T03:43:24.601Z,97.56
2018-01-21T03:45:52.016Z,97.38
2018-01-21T03:48:19.430Z,97.47
2018-01-21T03:50:46.851Z,97.43
2018-01-21T03:53:14.285Z,97.30
2018-01-21T03:55:41.700Z,97.33
2018-01-21T03:58:09.540Z,97.42
2018-01-21T04:00:36.961Z,97.55
2018-01-21T04:03:04.378Z,97.32
2018-01-21T04:05:31.800Z,97.33
2018-01-21T04:07:59.229Z,97.48
2018-01-21T04:10:26.650Z,97.20
2018-01-21T04:12:54.076Z,96.81
2018-01-21T04:15:21.496Z,96.56
2018-01-21T04:17:48.916Z,96.44
2018-01-21T04:20:16.714Z,96.68
2018-01-21T04:22:44.116Z,96.03
2018-01-21T04:25:11.540Z,96.02
2018-01-21T04:27:38.957Z,96.07
2018-01-21T04:30:06.366Z,95.98
2018-01-21T04:32:33.785Z,95.89
2018-01-21T04:35:01.590Z,96.21
2018-01-21T04:37:29.004Z,96.22
2018-01-21T04:39:56.421Z,96.00
2018-01-21T04:42:23.840Z,96.05
2018-01-21T04:44:51.262Z,96.18
2018-01-21T04:47:18.670Z,96.20
2018-01-21T04:49:46.102Z,95.98
2018-01-21T04:52:13.509Z,96.64
2018-01-21T04:54:40.914Z,96.15
2018-01-21T04:57:08.686Z,96.64
2018-01-21T04:59:36.111Z,96.30
2018-01-21T05:02:03.521Z,96.54
2018-01-21T05:04:30.953Z,96.37
2018-01-21T05:06:58.369Z,96.62
2018-01-21T05:09:25.776Z,96.29
2018-01-21T05:11:53.196Z,96.33
2018-01-21T05:14:20.664Z,96.52
2018-01-21T05:16:48.068Z,96.61
2018-01-21T05:19:15.825Z,96.23
2018-01-21T05:21:43.236Z,96.38
2018-01-21T05:24:10.654Z,96.31
2018-01-21T05:26:38.068Z,96.37
2018-01-21T05:29:05.481Z,96.53
2018-01-21T05:31:32.913Z,96.13
2018-01-21T05:34:00.340Z,95.91
2018-01-21T05:36:27.752Z,96.15
2018-01-21T05:38:55.172Z,96.12
2018-01-21T05:41:22.932Z,96.20
2018-01-21T05:43:50.358Z,95.36
2018-01-21T05:46:17.772Z,95.81
2018-01-21T05:48:45.206Z,95.74
2018-01-21T05:51:12.624Z,95.82
2018-01-21T05:53:40.037Z,95.52
2018-01-21T05:56:07.485Z,95.25
2018-01-21T05:58:34.901Z,95.36
2018-01-21T06:01:02.324Z,95.39
2018-01-21T06:03:29.758Z,95.95
2018-01-21T06:05:57.172Z,96.28
2018-01-21T06:08:24.585Z,95.98
2018-01-21T06:10:52.472Z,95.95
2018-01-21T06:13:19.869Z,96.06
2018-01-21T06:15:47.286Z,95.85
2018-01-21T06:18:14.709Z,95.81
2018-01-21T06:20:42.125Z,95.87
2018-01-21T06:23:09.532Z,95.33
2018-01-21T06:25:36.985Z,95.38
2018-01-21T06:28:22.805Z,95.56
2018-01-21T06:30:50.229Z,95.40
2018-01-21T06:33:17.641Z,95.35
2018-01-21T06:35:45.053Z,95.51
2018-01-21T06:38:12.485Z,95.44
2018-01-21T06:40:39.901Z,95.38
2018-01-21T06:43:07.310Z,95.41
2018-01-21T06:45:34.766Z,95.44
2018-01-21T06:48:02.190Z,95.49
2018-01-21T06:50:29.599Z,95.00
2018-01-21T06:52:57.038Z,95.25
2018-01-21T06:55:24.450Z,95.26
2018-01-21T06:57:51.873Z,95.62
2018-01-21T07:00:19.301Z,95.84
2018-01-21T07:02:46.745Z,95.37
2018-01-21T07:05:14.161Z,95.38
2018-01-21T07:07:41.650Z,95.28
2018-01-21T07:10:09.065Z,95.53
2018-01-21T07:12:36.489Z,95.49
2018-01-21T07:15:03.911Z,96.01
2018-01-21T07:17:31.321Z,96.73
2018-01-21T07:19:58.736Z,96.31
2018-01-21T07:22:26.166Z,95.78
2018-01-21T07:24:53.584Z,96.13
2018-01-21T07:27:21.010Z,95.90
2018-01-21T07:29:48.866Z,96.58
2018-01-21T07:32:16.289Z,96.51
2018-01-21T07:34:43.705Z,96.68
2018-01-21T07:37:11.129Z,96.23
2018-01-21T07:39:38.549Z,95.90
2018-01-21T07:42:05.965Z,95.47
2018-01-21T07:44:33.394Z,95.37
2018-01-21T07:47:00.812Z,95.60
2018-01-21T07:49:28.236Z,95.28
2018-01-21T07:51:55.673Z,95.56
2018-01-21T07:54:23.093Z,95.81
2018-01-21T07:56:50.513Z,96.43
2018-01-21T07:59:17.940Z,95.76
2018-01-21T08:01:45.365Z,95.94
2018-01-21T08:04:12.781Z,95.50
2018-01-21T08:06:40.518Z,95.66
2018-01-21T08:09:07.932Z,95.72
2018-01-21T08:11:35.340Z,95.53
2018-01-21T08:14:02.768Z,95.32
2018-01-21T08:16:30.184Z,95.56
2018-01-21T08:18:57.609Z,95.01
2018-01-21T08:21:25.351Z,95.08
2018-01-21T08:23:52.823Z,95.13
2018-01-21T08:26:20.185Z,95.16
2018-01-21T08:28:47.634Z,95.72
2018-01-21T08:31:15.049Z,94.73
2018-01-21T08:36:48.448Z,94.84
2018-01-21T08:39:21.545Z,94.52
2018-01-21T08:41:52.500Z,94.60
2018-01-21T08:44:20.826Z,94.67
2018-01-21T08:46:54.707Z,93.31
2018-01-21T08:49:22.215Z,93.34
2018-01-21T08:51:53.313Z,93.33
2018-01-21T08:54:20.749Z,93.66
2018-01-21T08:56:48.214Z,93.70
2018-01-21T08:59:15.666Z,92.64
2018-01-21T09:01:43.072Z,92.88
2018-01-21T09:04:10.496Z,93.40
2018-01-21T09:06:37.923Z,92.26
2018-01-21T09:09:05.333Z,92.50
2018-01-21T09:11:32.787Z,92.46
2018-01-21T09:14:00.219Z,91.92
2018-01-21T09:16:27.632Z,91.95
2018-01-21T09:18:55.073Z,92.24
2018-01-21T09:21:22.498Z,92.15
2018-01-21T09:23:49.926Z,92.35
2018-01-21T09:26:17.361Z,92.16
2018-01-21T09:28:44.777Z,91.88
2018-01-21T09:31:12.221Z,92.24
2018-01-21T09:33:39.636Z,92.35
2018-01-21T09:36:07.061Z,91.85
2018-01-21T09:38:34.481Z,90.72
2018-01-21T09:41:01.912Z,91.67
2018-01-21T09:43:29.373Z,91.64
2018-01-21T09:45:56.828Z,91.14
2018-01-21T09:48:24.616Z,90.82
2018-01-21T09:50:52.037Z,91.06
2018-01-21T09:53:19.467Z,92.43
2018-01-21T09:55:46.881Z,92.54
2018-01-21T09:58:14.289Z,91.92
2018-01-21T10:00:41.695Z,91.95
2018-01-21T10:03:09.112Z,91.01
2018-01-21T10:05:36.537Z,90.63
2018-01-21T10:08:03.949Z,91.96
2018-01-21T10:10:31.364Z,91.25
2018-01-21T10:12:58.776Z,90.86
2018-01-21T10:15:26.185Z,90.63
2018-01-21T10:17:54.099Z,90.92
2018-01-21T10:20:21.504Z,89.39
2018-01-21T10:22:48.921Z,89.75
2018-01-21T10:25:16.349Z,89.83
2018-01-21T10:27:43.777Z,89.30
2018-01-21T10:30:11.196Z,89.34
2018-01-21T10:32:38.925Z,90.09
2018-01-21T10:35:06.328Z,89.21
2018-01-21T10:37:33.748Z,88.25
2018-01-21T10:40:01.168Z,89.64
2018-01-21T10:42:28.602Z,88.77
2018-01-21T10:44:56.021Z,89.03
2018-01-21T10:47:23.820Z,88.26
2018-01-21T10:49:51.257Z,87.97
2018-01-21T10:52:18.688Z,87.16
2018-01-21T10:54:46.160Z,86.61
2018-01-21T10:57:13.560Z,86.75
2018-01-21T10:59:40.969Z,87.11
2018-01-21T11:02:08.644Z,87.63
2018-01-21T11:04:36.049Z,85.91
2018-01-21T11:07:03.465Z,86.81
2018-01-21T11:09:30.883Z,84.92
2018-01-21T11:11:58.871Z,87.27
2018-01-21T11:14:26.276Z,86.26
2018-01-21T11:17:05.612Z,85.64
2018-01-21T11:19:33.094Z,86.59
2018-01-21T11:22:14.361Z,86.67
2018-01-21T11:24:41.775Z,86.97
2018-01-21T11:27:09.184Z,86.62
2018-01-21T11:29:36.608Z,87.11
2018-01-21T11:32:04.013Z,87.51
2018-01-21T11:34:31.420Z,85.67
2018-01-21T11:36:58.841Z,84.86
2018-01-21T11:39:26.249Z,86.21
2018-01-21T11:41:53.702Z,86.56
2018-01-21T11:44:21.125Z,87.08
2018-01-21T11:46:48.533Z,87.42
2018-01-21T11:49:15.945Z,86.84
2018-01-21T11:51:43.361Z,87.45
2018-01-21T11:54:10.764Z,86.90
2018-01-21T11:56:38.200Z,86.99
2018-01-21T11:59:05.617Z,88.01
2018-01-21T12:01:33.061Z,88.16
2018-01-21T12:04:00.477Z,86.93
2018-01-21T12:06:27.888Z,87.53
2018-01-21T12:08:55.312Z,85.78
2018-01-21T12:11:22.741Z,87.23
2018-01-21T12:13:54.145Z,87.64
2018-01-21T12:16:21.573Z,86.22
2018-01-21T12:18:49.010Z,85.18
2018-01-21T12:21:16.430Z,84.92
2018-01-21T12:23:43.850Z,83.91
2018-01-21T12:26:11.585Z,84.81
2018-01-21T12:28:38.992Z,85.33
2018-01-21T12:31:06.405Z,86.25
2018-01-21T12:33:33.824Z,85.89
2018-01-21T12:36:01.241Z,86.27
2018-01-21T12:38:28.648Z,85.69
2018-01-21T12:40:56.151Z,84.58
2018-01-21T12:43:23.569Z,84.46
2018-01-21T12:45:50.968Z,84.18
2018-01-21T12:48:18.902Z,84.02
2018-01-21T12:50:46.580Z,84.22
2018-01-21T12:53:13.981Z,83.50
2018-01-21T12:55:41.778Z,84.15
2018-01-21T12:58:09.221Z,86.02
2018-01-21T13:00:36.641Z,81.81
2018-01-21T13:03:04.188Z,81.34
2018-01-21T13:05:31.671Z,82.72
2018-01-21T13:08:00.075Z,82.47
2018-01-21T13:10:27.845Z,82.82
2018-01-21T13:12:55.527Z,82.04
2018-01-21T13:15:23.022Z,83.39
2018-01-21T13:17:50.454Z,83.82
2018-01-21T13:20:17.865Z,82.79
2018-01-21T13:22:45.940Z,82.37
2018-01-21T13:25:13.608Z,83.10
2018-01-21T13:27:41.961Z,83.03
2018-01-21T13:30:09.725Z,83.28
2018-01-21T13:32:37.182Z,83.40
2018-01-21T13:35:04.634Z,82.63
2018-01-21T13:37:32.094Z,81.76
2018-01-21T13:39:59.521Z,82.07
2018-01-21T13:42:26.918Z,80.89
2018-01-21T13:44:54.397Z,81.39
2018-01-21T13:47:22.783Z,80.69
2018-01-21T13:49:51.189Z,80.23
2018-01-21T13:52:19.714Z,79.83
2018-01-21T13:54:47.374Z,80.52
2018-01-21T13:57:14.802Z,80.19
2018-01-21T13:59:42.208Z,81.54
2018-01-21T14:02:09.641Z,81.38
2018-01-21T14:04:37.048Z,78.53
2018-01-21T14:07:04.477Z,80.36
2018-01-21T14:09:33.245Z,80.19
2018-01-21T14:12:00.651Z,78.72
2018-01-21T14:14:29.857Z,80.45
2018-01-21T14:16:57.278Z,79.87
2018-01-21T14:19:24.720Z,80.22
2018-01-21T14:21:52.213Z,80.15
2018-01-21T14:24:19.652Z,81.11
2018-01-21T14:26:47.064Z,80.70
2018-01-21T14:29:14.520Z,79.99
2018-01-21T14:31:41.943Z,80.31
2018-01-21T14:34:09.352Z,81.03
2018-01-21T14:36:36.760Z,80.24
2018-01-21T14:39:04.490Z,79.64
2018-01-21T14:41:31.897Z,79.76
2018-01-21T14:43:59.301Z,78.90
2018-01-21T14:46:26.727Z,79.07
2018-01-21T14:48:54.124Z,79.76
2018-01-21T14:51:21.532Z,79.48
2018-01-21T14:53:48.953Z,79.34
2018-01-21T14:56:16.373Z,80.06
2018-01-21T14:58:43.781Z,80.54
2018-01-21T15:01:11.605Z,80.41
2018-01-21T15:03:39.009Z,79.31
2018-01-21T15:06:06.424Z,80.36
2018-01-21T15:08:34.177Z,79.84
2018-01-21T15:11:01.588Z,80.21
2018-01-21T15:13:29.000Z,80.43
2018-01-21T15:15:56.416Z,80.10
2018-01-21T15:18:23.865Z,78.94
2018-01-21T15:20:51.268Z,79.40
2018-01-21T15:23:18.696Z,80.12
2018-01-21T15:25:46.105Z,81.02
2018-01-21T15:28:13.522Z,80.86
2018-01-21T15:30:40.942Z,80.22
2018-01-21T15:33:08.413Z,80.18
2018-01-21T15:35:35.816Z,79.30
2018-01-21T15:38:03.237Z,79.87
2018-01-21T15:40:30.644Z,80.61
2018-01-21T15:42:58.057Z,79.84
2018-01-21T15:45:25.469Z,78.89
2018-01-21T15:47:52.950Z,79.23
2018-01-21T15:50:20.360Z,78.40
2018-01-21T15:52:47.781Z,79.25
2018-01-21T15:55:15.189Z,79.71
2018-01-21T15:57:42.625Z,80.06
2018-01-21T16:00:10.044Z,80.81
2018-01-21T16:02:37.458Z,81.88
2018-01-21T16:05:04.898Z,80.85
2018-01-21T16:07:32.742Z,81.11
2018-01-21T16:10:00.152Z,82.21
2018-01-21T16:12:27.560Z,82.83
2018-01-21T16:14:54.980Z,83.10
2018-01-21T16:17:22.384Z,83.23
2018-01-21T16:19:49.794Z,83.26
2018-01-21T16:22:17.219Z,83.17
2018-01-21T16:24:44.625Z,83.04
2018-01-21T16:27:12.038Z,83.29
2018-01-21T16:29:39.460Z,82.32
2018-01-21T16:32:06.876Z,82.39
2018-01-21T16:34:34.312Z,82.86
2018-01-21T16:37:01.714Z,83.03
2018-01-21T16:39:29.132Z,83.26
2018-01-21T16:41:56.545Z,83.78
2018-01-21T16:44:24.264Z,83.04
2018-01-21T16:46:51.681Z,83.61
2018-01-21T16:49:19.100Z,84.15
2018-01-21T16:51:46.531Z,84.44
2018-01-21T16:54:13.936Z,84.78
2018-01-21T16:56:41.345Z,85.16
2018-01-21T16:59:08.772Z,85.55
2018-01-21T17:01:36.189Z,85.95
2018-01-21T17:04:03.608Z,86.04
2018-01-21T17:06:31.305Z,86.30
2018-01-21T17:08:58.748Z,86.56
2018-01-21T17:11:26.192Z,86.63
2018-01-21T17:13:53.741Z,86.98
2018-01-21T17:16:21.172Z,87.17
2018-01-21T17:18:48.581Z,87.28
2018-01-21T17:21:16.005Z,87.70
2018-01-21T17:23:43.421Z,88.06
2018-01-21T17:26:10.838Z,88.13
2018-01-21T17:28:38.274Z,88.00
2018-01-21T17:31:05.686Z,88.13
2018-01-21T17:33:33.090Z,88.13
2018-01-21T17:36:00.528Z,88.29
2018-01-21T17:38:27.957Z,88.78
2018-01-21T17:40:55.393Z,88.93
2018-01-21T17:43:23.161Z,88.91
2018-01-21T17:45:50.580Z,89.01
2018-01-21T17:48:17.996Z,88.93
2018-01-21T17:50:45.404Z,88.54
2018-01-21T17:53:12.837Z,88.00
2018-01-21T17:55:40.234Z,87.12
2018-01-21T17:58:07.719Z,87.73
2018-01-21T18:00:35.201Z,87.87
2018-01-21T18:03:02.681Z,87.94
2018-01-21T18:05:30.686Z,87.91
2018-01-21T18:07:58.967Z,87.81
2018-01-21T18:10:26.494Z,87.71
2018-01-21T18:12:53.925Z,87.73
2018-01-21T18:15:21.328Z,87.72
2018-01-21T18:17:48.756Z,87.66
2018-01-21T18:20:16.180Z,87.93
2018-01-21T18:22:43.584Z,87.96
2018-01-21T18:25:11.020Z,87.75
2018-01-21T18:27:38.441Z,87.70
2018-01-21T18:30:05.869Z,87.79
2018-01-21T18:32:33.393Z,87.67
2018-01-21T18:35:01.152Z,87.98
2018-01-21T18:37:28.584Z,87.30
2018-01-21T18:39:56.606Z,86.65
2018-01-21T18:42:24.773Z,86.75
2018-01-21T18:44:52.221Z,86.78
2018-01-21T18:47:20.425Z,87.07
2018-01-21T18:49:47.857Z,87.25
2018-01-21T18:52:15.303Z,86.67
2018-01-21T18:54:42.733Z,86.95
2018-01-21T18:57:10.409Z,86.96
2018-01-21T18:59:37.828Z,87.18
2018-01-21T19:02:05.261Z,87.52
2018-01-21T19:04:33.160Z,87.82
2018-01-21T19:07:00.612Z,86.95
2018-01-21T19:09:28.049Z,86.60
2018-01-21T19:11:55.491Z,87.25
2018-01-21T19:14:22.904Z,87.47
2018-01-21T19:16:50.395Z,86.47
2018-01-21T19:19:18.191Z,86.67
2018-01-21T19:21:45.617Z,86.78
2018-01-21T19:24:13.024Z,87.00
2018-01-21T19:26:40.761Z,86.93
2018-01-21T19:29:08.177Z,86.70
2018-01-21T19:31:35.601Z,86.37
2018-01-21T19:34:03.265Z,86.08
2018-01-21T19:36:30.691Z,85.81
2018-01-21T19:39:03.712Z,85.35
2018-01-21T19:41:36.652Z,85.65
2018-01-21T19:44:04.113Z,85.71
2018-01-21T19:46:31.533Z,85.34
2018-01-21T19:48:58.965Z,84.82
2018-01-21T19:51:26.798Z,84.32
2018-01-21T19:53:54.237Z,84.31
2018-01-21T19:56:21.661Z,83.83
2018-01-21T19:58:56.753Z,84.06
2018-01-21T20:01:24.285Z,84.54
2018-01-21T20:03:51.818Z,84.24
2018-01-21T20:06:19.317Z,83.53
2018-01-21T20:08:46.740Z,83.92
2018-01-21T20:11:14.168Z,82.94
2018-01-21T20:13:41.700Z,82.46
2018-01-21T20:16:13.124Z,83.15
2018-01-21T20:18:40.581Z,83.25
2018-01-21T20:21:08.374Z,83.13
2018-01-21T20:23:35.801Z,82.65
2018-01-21T20:26:03.216Z,82.51
2018-01-21T20:28:31.049Z,82.12
2018-01-21T20:30:58.468Z,82.60
2018-01-21T20:33:25.897Z,82.89
2018-01-21T20:35:53.341Z,81.89
2018-01-21T20:38:20.785Z,82.26
2018-01-21T20:40:48.244Z,82.13
2018-01-21T20:43:15.681Z,83.28
2018-01-21T20:45:43.109Z,82.62
2018-01-21T20:48:10.525Z,82.37
2018-01-21T20:50:38.300Z,83.22
2018-01-21T20:53:11.364Z,82.67
2018-01-21T20:55:38.786Z,82.66
2018-01-21T20:58:06.209Z,82.73
2018-01-21T21:00:33.652Z,83.08
2018-01-21T21:03:01.090Z,82.72
2018-01-21T21:05:28.509Z,82.94
2018-01-21T21:07:55.925Z,82.95
2018-01-21T21:10:23.644Z,82.76
2018-01-21T21:12:51.073Z,82.41
2018-01-21T21:15:18.499Z,81.86
2018-01-21T21:17:45.921Z,82.67
2018-01-21T21:20:13.352Z,82.87
2018-01-21T21:22:40.770Z,82.31
2018-01-21T21:25:08.189Z,82.01
2018-01-21T21:27:35.613Z,82.05
2018-01-21T21:30:03.031Z,81.95
2018-01-21T21:32:30.533Z,82.25
2018-01-21T21:34:57.944Z,81.69
2018-01-21T21:37:25.344Z,82.20
2018-01-21T21:39:52.776Z,81.44
2018-01-21T21:42:20.198Z,81.79
2018-01-21T21:44:47.617Z,80.80
2018-01-21T21:47:15.042Z,81.71
2018-01-21T21:49:42.469Z,82.29
2018-01-21T21:52:09.950Z,81.52
2018-01-21T21:54:37.678Z,81.54
2018-01-21T21:57:05.105Z,81.54
2018-01-21T21:59:32.527Z,82.06
2018-01-21T22:02:00.258Z,81.98
2018-01-21T22:04:27.680Z,81.21
2018-01-21T22:06:55.096Z,81.67
2018-01-21T22:09:22.524Z,81.11
2018-01-21T22:11:49.952Z,81.16
2018-01-21T22:14:17.381Z,81.32
2018-01-21T22:16:44.806Z,82.24
2018-01-21T22:19:12.204Z,81.92
2018-01-21T22:21:39.628Z,82.17
2018-01-21T22:24:07.061Z,82.83
2018-01-21T22:26:34.481Z,83.81
2018-01-21T22:29:01.901Z,85.04
2018-01-21T22:31:29.338Z,84.99
2018-01-21T22:33:56.740Z,85.94
2018-01-21T22:36:24.142Z,86.10
2018-01-21T22:38:51.558Z,86.14
2018-01-21T22:41:18.952Z,86.77
2018-01-21T22:43:46.361Z,87.53
2018-01-21T22:46:14.156Z,88.03
2018-01-21T22:48:41.574Z,88.62
2018-01-21T22:51:08.993Z,88.55
2018-01-21T22:53:36.425Z,88.70
2018-01-21T22:56:03.845Z,89.18
2018-01-21T22:58:31.249Z,89.52
2018-01-21T23:00:59.130Z,89.68
2018-01-21T23:03:26.550Z,90.22
2018-01-21T23:05:53.977Z,90.54
2018-01-21T23:08:21.408Z,90.96
2018-01-21T23:10:48.824Z,91.35
2018-01-21T23:13:16.240Z,91.44
2018-01-21T23:15:43.658Z,91.83
2018-01-21T23:18:11.068Z,92.08
2018-01-21T23:20:50.449Z,92.18
2018-01-21T23:23:17.869Z,92.32
2018-01-21T23:25:45.290Z,92.47
2018-01-21T23:28:12.720Z,92.73
2018-01-21T23:30:40.138Z,92.94
2018-01-21T23:33:07.562Z,93.21
2018-01-21T23:35:34.985Z,92.93
2018-01-21T23:38:02.425Z,93.15
2018-01-21T23:40:29.848Z,93.35
2018-01-21T23:42:57.770Z,93.40
2018-01-21T23:45:25.188Z,93.33
2018-01-21T23:47:52.600Z,93.60
2018-01-21T23:50:20.025Z,93.51
2018-01-21T23:52:47.441Z,93.43
2018-01-21T23:55:14.868Z,93.57
2018-01-21T23:57:42.297Z,93.35
